Time;durP1;ratioP1;P1;durP2;ratioP2;P2;SDS_P1;SDS_P2;PMS_P1;PMS_P2;Temp;Humidity;BMP_temperature;BMP_pressure;BME280_temperature;BME280_humidity;BME280_pressure;Samples;Min_cycle;Max_cycle;Signal;HPM_P1;HPM_P2
2024/02/07 10:36:31;;;;;;;3.43;3.03;;;;;;;8.59;100.00;97791.50;5121677;27;20553;-83
2024/02/07 10:39:02;;;;;;;2.90;2.60;;;;;;;9.02;100.00;97800.63;5071216;28;39049;-84
2024/02/07 10:41:30;;;;;;;3.20;2.80;;;;;;;9.58;100.00;97808.81;5071422;28;44128;-85
2024/02/07 10:44:06;;;;;;;3.13;2.73;;;;;;;10.04;100.00;97815.88;5087396;28;41949;-81
2024/02/07 10:46:38;;;;;;;4.73;2.70;;;;;;;10.23;100.00;97802.94;5071062;28;42018;-84
2024/02/07 10:49:13;;;;;;;3.20;2.83;;;;;;;10.47;100.00;97808.13;5070978;28;40242;-84
2024/02/07 10:51:42;;;;;;;5.93;2.40;;;;;;;10.73;100.00;97793.66;5071152;28;43442;-86
2024/02/07 10:54:12;;;;;;;3.20;2.53;;;;;;;10.83;100.00;97777.88;5070168;28;42168;-86
2024/02/07 10:57:20;;;;;;;2.53;2.27;;;;;;;10.90;100.00;97768.47;5070575;28;43471;-85
2024/02/07 11:00:05;;;;;;;3.43;2.17;;;;;;;11.09;100.00;97810.22;5070578;28;40257;-87
2024/02/07 11:02:34;;;;;;;2.30;2.10;;;;;;;11.08;100.00;97804.06;5070368;28;42589;-86
2024/02/07 11:05:03;;;;;;;3.90;2.17;;;;;;;10.97;100.00;97785.56;5070749;28;44438;-82
2024/02/07 11:07:32;;;;;;;3.53;2.17;;;;;;;11.15;100.00;97794.63;5071180;28;41166;-85
2024/02/07 11:10:01;;;;;;;3.20;1.87;;;;;;;11.12;100.00;97760.47;5070552;28;40218;-83
2024/02/07 11:12:30;;;;;;;2.10;1.87;;;;;;;11.29;100.00;97785.56;5070770;28;42255;-82
2024/02/07 11:14:59;;;;;;;2.97;2.07;;;;;;;11.43;100.00;97776.47;5070705;28;41892;-83
2024/02/07 11:17:31;;;;;;;4.23;2.30;;;;;;;11.52;100.00;97765.09;5088070;28;41246;-85
2024/02/07 11:20:07;;;;;;;2.57;1.80;;;;;;;11.70;100.00;97775.97;5070737;28;39465;-86
2024/02/07 11:22:41;;;;;;;2.90;2.10;;;;;;;11.74;100.00;97783.56;5070367;28;40733;-81
2024/02/07 11:25:11;;;;;;;2.73;2.00;;;;;;;11.64;100.00;97749.97;5070632;28;41756;-83
2024/02/07 11:27:40;;;;;;;2.37;1.70;;;;;;;11.62;100.00;97776.59;5070714;28;42393;-82
2024/02/07 11:30:10;;;;;;;3.00;1.80;;;;;;;11.65;100.00;97770.19;5087485;28;40916;-83
2024/02/07 11:32:38;;;;;;;3.83;1.80;;;;;;;11.62;100.00;97763.34;5087165;28;40730;-83
2024/02/07 11:35:09;;;;;;;4.63;2.00;;;;;;;11.56;100.00;97745.31;5086467;28;41794;-85
2024/02/07 11:37:39;;;;;;;3.07;1.60;;;;;;;11.66;100.00;97762.13;5070344;28;42350;-85
2024/02/07 11:40:09;;;;;;;3.57;1.83;;;;;;;11.56;100.00;97753.25;5087817;28;41067;-83
2024/02/07 11:42:39;;;;;;;2.57;2.07;;;;;;;11.60;100.00;97744.09;5069973;28;42284;-86
2024/02/07 11:45:12;;;;;;;2.40;2.07;;;;;;;11.78;100.00;97758.47;5070497;28;42275;-83
2024/02/07 11:47:42;;;;;;;4.70;2.03;;;;;;;11.85;100.00;97751.69;5073307;28;42038;-82
2024/02/07 11:50:14;;;;;;;2.97;1.57;;;;;;;11.90;98.44;97729.22;5057442;28;39547;-83
2024/02/07 11:52:46;;;;;;;2.57;1.80;;;;;;;12.26;98.91;97760.53;5073259;28;40803;-84
2024/02/07 11:55:14;;;;;;;1.50;1.40;;;;;;;12.41;97.15;97747.75;5057420;28;43128;-83
2024/02/07 11:57:43;;;;;;;1.50;1.40;;;;;;;12.43;96.77;97732.53;5073495;28;40798;-87
2024/02/07 12:00:15;;;;;;;2.83;1.50;;;;;;;12.58;95.99;97747.09;5057341;28;39988;-87
2024/02/07 12:02:46;;;;;;;1.87;1.40;;;;;;;12.36;96.13;97721.63;5056498;28;40915;-83
2024/02/07 12:05:15;;;;;;;2.33;1.83;;;;;;;12.32;96.38;97745.91;5056813;28;43148;-82
2024/02/07 12:07:44;;;;;;;1.57;1.40;;;;;;;12.23;97.34;97713.03;5055978;28;42200;-84
2024/02/07 12:10:12;;;;;;;2.10;1.57;;;;;;;12.54;96.64;97719.97;5073826;28;39028;-83
2024/02/07 12:12:40;;;;;;;2.00;1.80;;;;;;;13.34;93.94;97711.00;5056309;28;41189;-83
2024/02/07 12:15:08;;;;;;;3.33;1.27;;;;;;;13.65;88.65;97690.38;5056299;28;41634;-83
2024/02/07 12:17:36;;;;;;;2.10;1.30;;;;;;;13.96;85.33;97737.09;5074613;28;42375;-84
2024/02/07 12:20:05;;;;;;;1.30;1.20;;;;;;;13.93;85.38;97734.72;5056763;28;40128;-82
2024/02/07 12:22:35;;;;;;;1.40;1.30;;;;;;;13.81;83.96;97709.25;5072915;28;42437;-85
2024/02/07 12:25:13;;;;;;;1.43;0.90;;;;;;;13.96;85.86;97691.84;5073062;28;43353;-84
2024/02/07 12:27:41;;;;;;;1.20;1.10;;;;;;;14.42;84.19;97708.78;5039312;28;43670;-83
2024/02/07 12:30:10;;;;;;;1.57;1.30;;;;;;;14.76;80.89;97717.00;5073300;28;40169;-84
2024/02/07 12:32:38;;;;;;;3.70;1.60;;;;;;;15.05;78.39;97711.47;5056345;28;41314;-85
2024/02/07 12:35:10;;;;;;;1.43;1.10;;;;;;;16.49;74.13;97733.22;5039024;28;41893;-87
2024/02/07 12:37:39;;;;;;;2.00;1.30;;;;;;;16.88;69.98;97715.69;5055900;28;43647;-83
2024/02/07 12:40:15;;;;;;;2.37;1.80;;;;;;;16.53;68.38;97713.19;5056150;28;39358;-87
2024/02/07 12:42:44;;;;;;;3.37;1.60;;;;;;;15.90;68.78;97713.53;5055793;28;40330;-86
2024/02/07 12:45:13;;;;;;;1.60;1.20;;;;;;;15.36;71.04;97703.91;5055603;28;41584;-84
2024/02/07 12:47:43;;;;;;;1.63;1.20;;;;;;;15.00;72.22;97713.75;5055331;28;41343;-84
2024/02/07 12:50:12;;;;;;;2.60;1.30;;;;;;;14.55;74.58;97703.09;5054508;28;38996;-83
2024/02/07 12:52:39;;;;;;;2.83;1.20;;;;;;;14.36;76.21;97696.00;5072860;28;40864;-83
2024/02/07 12:55:13;;;;;;;1.20;1.10;;;;;;;14.16;75.62;97694.41;5054927;28;42197;-83
2024/02/07 12:57:44;;;;;;;1.53;1.10;;;;;;;13.97;77.71;97687.34;5054470;28;41302;-83
2024/02/07 13:00:23;;;;;;;1.57;1.20;;;;;;;13.58;77.93;97662.69;5066988;28;40717;-86
2024/02/07 13:02:50;;;;;;;1.73;0.97;;;;;;;13.50;79.29;97676.69;5054784;28;41016;-81
2024/02/07 13:05:18;;;;;;;1.97;1.13;;;;;;;13.27;80.16;97654.88;5072067;28;44026;-81
2024/02/07 13:07:45;;;;;;;1.43;0.93;;;;;;;13.19;81.53;97676.03;5072413;28;41371;-79
2024/02/07 13:10:12;;;;;;;1.70;1.10;;;;;;;13.10;82.05;97673.34;5071934;28;39135;-81
2024/02/07 13:12:41;;;;;;;3.23;1.20;;;;;;;12.78;82.52;97633.75;5072366;28;42091;-81
2024/02/07 13:15:15;;;;;;;1.10;1.00;;;;;;;12.79;82.97;97657.53;5071663;28;42554;-82
2024/02/07 13:17:42;;;;;;;1.50;1.33;;;;;;;12.76;83.23;97655.16;5055821;28;41165;-83
2024/02/07 13:20:11;;;;;;;1.30;1.20;;;;;;;12.79;83.71;97656.69;5055650;28;38820;-85
2024/02/07 13:22:40;;;;;;;1.93;1.20;;;;;;;12.47;83.76;97627.72;5055053;28;41222;-83
2024/02/07 13:25:10;;;;;;;1.43;1.23;;;;;;;12.72;83.58;97671.50;5055104;28;45238;-84
2024/02/07 13:27:43;;;;;;;2.77;1.17;;;;;;;12.59;84.03;97663.81;5055253;28;41190;-87
2024/02/07 13:30:13;;;;;;;1.57;1.10;;;;;;;12.50;84.42;97646.88;5055542;28;39173;-82
2024/02/07 13:32:40;;;;;;;1.33;1.23;;;;;;;12.51;84.68;97648.53;5071682;28;41857;-82
2024/02/07 13:35:08;;;;;;;1.20;1.00;;;;;;;12.54;84.02;97658.06;5054447;28;43403;-81
2024/02/07 13:37:35;;;;;;;1.50;1.27;;;;;;;12.53;84.71;97661.69;5071856;28;42525;-81
2024/02/07 13:40:03;;;;;;;1.33;1.07;;;;;;;12.47;84.69;97657.78;5071980;28;39135;-84
2024/02/07 13:42:31;;;;;;;1.13;1.00;;;;;;;12.28;84.53;97631.19;5071668;28;42340;-82
2024/02/07 13:44:59;;;;;;;0.97;0.87;;;;;;;12.43;84.85;97655.53;5072845;28;43112;-81
2024/02/07 13:47:27;;;;;;;1.30;1.10;;;;;;;12.38;84.32;97669.19;5054773;28;41771;-81
2024/02/07 13:49:54;;;;;;;2.03;1.13;;;;;;;12.25;84.78;97634.09;5055028;28;38930;-86
2024/02/07 13:52:24;;;;;;;1.40;1.10;;;;;;;12.21;85.21;97609.66;5072068;28;43030;-86
2024/02/07 13:54:52;;;;;;;1.13;0.97;;;;;;;12.34;85.65;97641.25;5054264;28;42349;-85
2024/02/07 13:57:19;;;;;;;1.40;1.30;;;;;;;12.23;85.54;97633.41;5071704;28;42293;-84
2024/02/07 13:59:47;;;;;;;1.13;1.03;;;;;;;12.15;86.61;97619.97;5071347;28;38714;-84
2024/02/07 14:02:16;;;;;;;2.47;0.93;;;;;;;12.22;85.84;97621.13;5054886;28;41919;-84
2024/02/07 14:04:44;;;;;;;2.50;1.30;;;;;;;12.18;86.16;97619.69;5071052;28;43910;-86
2024/02/07 14:07:11;;;;;;;1.20;1.10;;;;;;;12.09;86.85;97613.41;5054824;28;42066;-83
2024/02/07 14:09:39;;;;;;;1.30;1.20;;;;;;;12.25;87.12;97628.78;5054526;28;39245;-84
2024/02/07 14:12:07;;;;;;;1.73;1.23;;;;;;;12.09;87.05;97609.91;5054756;28;41320;-85
2024/02/07 14:14:36;;;;;;;1.73;1.30;;;;;;;12.23;86.98;97625.44;5054221;28;44259;-85
2024/02/07 14:17:03;;;;;;;1.57;1.20;;;;;;;12.11;86.88;97606.16;5054320;28;41632;-84
2024/02/07 14:19:32;;;;;;;1.70;1.10;;;;;;;12.19;86.03;97616.91;5054239;28;40389;-84
2024/02/07 14:22:00;;;;;;;3.17;1.20;;;;;;;12.18;86.45;97609.09;5054155;28;43076;-82
2024/02/07 14:24:28;;;;;;;1.27;1.00;;;;;;;12.21;86.20;97604.34;5054168;28;42898;-82
2024/02/07 14:26:56;;;;;;;1.33;1.00;;;;;;;12.32;86.10;97614.00;5054263;28;42532;-83
2024/02/07 14:29:24;;;;;;;1.37;1.27;;;;;;;12.39;85.66;97615.13;5054322;28;39130;-82
2024/02/07 14:31:51;;;;;;;3.60;1.43;;;;;;;12.37;85.94;97614.41;5053980;28;40642;-83
2024/02/07 14:34:19;;;;;;;1.33;1.10;;;;;;;12.42;85.10;97621.97;5070130;28;42216;-81
2024/02/07 14:36:48;;;;;;;1.67;1.23;;;;;;;12.42;85.49;97633.44;5054032;28;42614;-83
2024/02/07 14:39:16;;;;;;;1.43;1.30;;;;;;;12.39;84.87;97617.78;5070899;28;38631;-82
2024/02/07 14:41:44;;;;;;;2.07;1.30;;;;;;;12.55;84.55;97634.03;5072098;28;43158;-83
2024/02/07 14:44:12;;;;;;;1.43;1.20;;;;;;;12.50;84.09;97630.09;5054391;28;43987;-84
2024/02/07 14:46:40;;;;;;;2.30;1.17;;;;;;;12.32;85.08;97619.31;5071408;28;42388;-84
2024/02/07 14:49:07;;;;;;;2.30;1.47;;;;;;;12.37;85.37;97633.00;5070715;28;41581;-81
2024/02/07 14:51:35;;;;;;;2.23;1.60;;;;;;;12.30;85.86;97629.22;5053686;28;42415;-83
2024/02/07 14:54:04;;;;;;;1.50;1.40;;;;;;;12.15;86.53;97619.97;5070790;28;43362;-84
2024/02/07 14:56:33;;;;;;;1.70;1.23;;;;;;;12.08;87.65;97614.38;5053619;28;42514;-85
2024/02/07 14:59:01;;;;;;;1.20;1.10;;;;;;;12.05;88.09;97633.22;5054169;28;39342;-86
2024/02/07 15:01:29;;;;;;;1.40;1.30;;;;;;;11.95;88.08;97619.09;5054496;28;41830;-82
2024/02/07 15:03:57;;;;;;;2.83;1.40;;;;;;;12.02;88.71;97630.81;5055202;28;41703;-82
2024/02/07 15:06:24;;;;;;;2.80;1.30;;;;;;;11.99;89.11;97632.94;5056675;28;42698;-81
2024/02/07 15:08:52;;;;;;;1.43;1.20;;;;;;;11.94;89.63;97611.25;5054863;28;39171;-81
2024/02/07 15:11:21;;;;;;;1.97;1.30;;;;;;;11.87;89.91;97610.94;5072517;28;42107;-82
2024/02/07 15:13:48;;;;;;;1.80;1.40;;;;;;;11.86;90.82;97619.91;5056444;28;43405;-83
2024/02/07 15:16:16;;;;;;;1.50;1.27;;;;;;;11.78;92.28;97623.19;5058005;28;43431;-83
2024/02/07 15:18:43;;;;;;;2.43;1.60;;;;;;;11.66;93.43;97608.31;5053968;28;40127;-83
2024/02/07 15:21:12;;;;;;;1.63;1.33;;;;;;;11.56;94.26;97612.75;5053951;28;40537;-84
2024/02/07 15:23:40;;;;;;;1.83;1.00;;;;;;;11.20;95.24;97563.72;5056699;28;43199;-86
2024/02/07 15:26:08;;;;;;;1.90;1.27;;;;;;;11.11;96.29;97560.06;5056674;28;41868;-84
2024/02/07 15:28:37;;;;;;;1.33;1.23;;;;;;;11.32;96.91;97605.09;5073778;28;40091;-83
2024/02/07 15:31:05;;;;;;;2.43;1.50;;;;;;;11.24;97.52;97606.72;5056907;28;42281;-83
2024/02/07 15:33:34;;;;;;;1.53;1.23;;;;;;;11.24;98.55;97612.03;5056684;28;42632;-82
2024/02/07 15:36:02;;;;;;;1.53;1.40;;;;;;;11.25;99.27;97624.31;5073550;28;41067;-83
2024/02/07 15:38:32;;;;;;;2.20;1.73;;;;;;;11.14;99.48;97612.78;5073396;28;40008;-82
2024/02/07 15:40:59;;;;;;;1.80;1.67;;;;;;;11.11;100.00;97613.06;5056533;28;42252;-82
2024/02/07 15:43:28;;;;;;;1.53;1.43;;;;;;;11.24;100.00;97622.63;5056862;28;41926;-86
2024/02/07 15:45:58;;;;;;;3.83;2.00;;;;;;;11.10;100.00;97607.88;5074563;28;42890;-84
2024/02/07 15:48:25;;;;;;;2.63;1.90;;;;;;;11.04;100.00;97606.56;5056313;28;38903;-83
2024/02/07 15:50:52;;;;;;;3.50;2.10;;;;;;;11.10;100.00;97616.66;5073602;28;41652;-83
